sensor_id;sensor_type;location;lat;lon;timestamp;P1;durP1;ratioP1;P2;durP2;ratioP2
15516;SDS011;7860;52.030;5.572;2023-04-25T00:03:30;16.81;;;4.99;;
15516;SDS011;7860;52.030;5.572;2023-04-25T00:03:30;17.83;;;4.99;;
15516;SDS011;7860;52.030;5.572;2023-04-25T00:04:21;18.61;;;5.05;;
15516;SDS011;7860;52.030;5.572;2023-04-25T00:05:22;16.30;;;4.54;;
15516;SDS011;7860;52.030;5.572;2023-04-25T00:06:23;16.13;;;4.59;;
15516;SDS011;7860;52.030;5.572;2023-04-25T00:07:24;16.23;;;4.46;;
15516;SDS011;7860;52.030;5.572;2023-04-25T00:08:24;15.72;;;4.96;;
15516;SDS011;7860;52.030;5.572;2023-04-25T00:09:25;18.21;;;4.78;;
15516;SDS011;7860;52.030;5.572;2023-04-25T00:10:25;17.43;;;4.72;;
15516;SDS011;7860;52.030;5.572;2023-04-25T00:11:26;16.59;;;4.88;;
15516;SDS011;7860;52.030;5.572;2023-04-25T00:12:26;22.03;;;5.30;;
15516;SDS011;7860;52.030;5.572;2023-04-25T00:13:26;17.76;;;4.75;;
15516;SDS011;7860;52.030;5.572;2023-04-25T00:14:28;18.73;;;4.97;;
15516;SDS011;7860;52.030;5.572;2023-04-25T00:15:28;15.26;;;4.65;;
15516;SDS011;7860;52.030;5.572;2023-04-25T00:16:28;15.30;;;4.43;;
15516;SDS011;7860;52.030;5.572;2023-04-25T00:17:28;17.81;;;4.80;;
15516;SDS011;7860;52.030;5.572;2023-04-25T00:18:29;16.85;;;4.78;;
15516;SDS011;7860;52.030;5.572;2023-04-25T00:19:29;17.35;;;5.00;;
15516;SDS011;7860;52.030;5.572;2023-04-25T00:20:30;15.41;;;4.80;;
15516;SDS011;7860;52.030;5.572;2023-04-25T00:21:30;15.35;;;4.74;;
15516;SDS011;7860;52.030;5.572;2023-04-25T00:22:31;16.57;;;5.08;;
15516;SDS011;7860;52.030;5.572;2023-04-25T00:23:32;17.07;;;4.81;;
15516;SDS011;7860;52.030;5.572;2023-04-25T00:24:33;15.87;;;4.90;;
15516;SDS011;7860;52.030;5.572;2023-04-25T00:25:33;13.89;;;4.76;;
15516;SDS011;7860;52.030;5.572;2023-04-25T00:26:34;16.20;;;5.13;;
15516;SDS011;7860;52.030;5.572;2023-04-25T00:27:34;17.44;;;5.02;;
15516;SDS011;7860;52.030;5.572;2023-04-25T00:28:35;18.85;;;5.28;;
15516;SDS011;7860;52.030;5.572;2023-04-25T00:29:35;18.67;;;5.37;;
15516;SDS011;7860;52.030;5.572;2023-04-25T00:30:36;18.30;;;5.65;;
15516;SDS011;7860;52.030;5.572;2023-04-25T00:31:36;16.51;;;5.37;;
15516;SDS011;7860;52.030;5.572;2023-04-25T00:32:37;17.38;;;5.37;;
15516;SDS011;7860;52.030;5.572;2023-04-25T00:33:37;20.54;;;5.31;;
15516;SDS011;7860;52.030;5.572;2023-04-25T00:34:37;19.04;;;5.49;;
15516;SDS011;7860;52.030;5.572;2023-04-25T00:35:38;16.80;;;5.04;;
15516;SDS011;7860;52.030;5.572;2023-04-25T00:36:38;18.98;;;5.74;;
15516;SDS011;7860;52.030;5.572;2023-04-25T00:37:39;21.79;;;5.83;;
15516;SDS011;7860;52.030;5.572;2023-04-25T00:38:39;19.07;;;5.23;;
15516;SDS011;7860;52.030;5.572;2023-04-25T00:39:40;20.29;;;5.41;;
15516;SDS011;7860;52.030;5.572;2023-04-25T00:40:40;22.00;;;5.91;;
15516;SDS011;7860;52.030;5.572;2023-04-25T00:41:41;19.17;;;5.59;;
15516;SDS011;7860;52.030;5.572;2023-04-25T00:42:41;22.48;;;6.04;;
15516;SDS011;7860;52.030;5.572;2023-04-25T00:43:42;19.06;;;5.76;;
15516;SDS011;7860;52.030;5.572;2023-04-25T00:44:43;22.42;;;5.88;;
15516;SDS011;7860;52.030;5.572;2023-04-25T00:45:43;18.06;;;5.35;;
15516;SDS011;7860;52.030;5.572;2023-04-25T00:46:44;20.08;;;5.69;;
15516;SDS011;7860;52.030;5.572;2023-04-25T00:47:45;18.09;;;5.37;;
15516;SDS011;7860;52.030;5.572;2023-04-25T00:48:45;20.46;;;6.12;;
15516;SDS011;7860;52.030;5.572;2023-04-25T00:49:46;18.70;;;5.72;;
15516;SDS011;7860;52.030;5.572;2023-04-25T00:50:49;20.52;;;5.29;;
15516;SDS011;7860;52.030;5.572;2023-04-25T00:51:47;18.93;;;5.97;;
15516;SDS011;7860;52.030;5.572;2023-04-25T00:52:48;18.83;;;5.50;;
15516;SDS011;7860;52.030;5.572;2023-04-25T00:53:48;19.69;;;5.58;;
15516;SDS011;7860;52.030;5.572;2023-04-25T00:54:48;17.92;;;5.61;;
15516;SDS011;7860;52.030;5.572;2023-04-25T00:55:50;17.93;;;5.10;;
15516;SDS011;7860;52.030;5.572;2023-04-25T00:56:49;18.90;;;5.90;;
15516;SDS011;7860;52.030;5.572;2023-04-25T00:57:50;19.65;;;5.88;;
15516;SDS011;7860;52.030;5.572;2023-04-25T00:58:51;16.98;;;5.13;;
15516;SDS011;7860;52.030;5.572;2023-04-25T00:59:51;19.51;;;5.42;;
15516;SDS011;7860;52.030;5.572;2023-04-25T01:00:52;18.84;;;5.40;;
15516;SDS011;7860;52.030;5.572;2023-04-25T01:01:53;18.56;;;5.94;;
15516;SDS011;7860;52.030;5.572;2023-04-25T01:02:53;21.81;;;5.85;;
15516;SDS011;7860;52.030;5.572;2023-04-25T01:03:54;22.52;;;5.86;;
15516;SDS011;7860;52.030;5.572;2023-04-25T01:04:55;20.47;;;5.96;;
15516;SDS011;7860;52.030;5.572;2023-04-25T01:05:55;18.51;;;5.54;;
15516;SDS011;7860;52.030;5.572;2023-04-25T01:06:56;19.86;;;5.90;;
15516;SDS011;7860;52.030;5.572;2023-04-25T01:07:56;20.73;;;5.61;;
15516;SDS011;7860;52.030;5.572;2023-04-25T01:08:57;16.55;;;5.50;;
15516;SDS011;7860;52.030;5.572;2023-04-25T01:09:57;16.16;;;5.66;;
15516;SDS011;7860;52.030;5.572;2023-04-25T01:10:58;17.15;;;5.08;;
15516;SDS011;7860;52.030;5.572;2023-04-25T01:12:01;17.45;;;5.59;;
15516;SDS011;7860;52.030;5.572;2023-04-25T01:13:00;18.31;;;5.42;;
15516;SDS011;7860;52.030;5.572;2023-04-25T01:14:00;24.18;;;5.87;;
15516;SDS011;7860;52.030;5.572;2023-04-25T01:15:01;16.81;;;5.83;;
15516;SDS011;7860;52.030;5.572;2023-04-25T01:16:02;13.84;;;4.98;;
15516;SDS011;7860;52.030;5.572;2023-04-25T01:17:02;17.23;;;5.43;;
15516;SDS011;7860;52.030;5.572;2023-04-25T01:18:03;16.59;;;5.23;;
15516;SDS011;7860;52.030;5.572;2023-04-25T01:19:04;17.65;;;5.32;;
15516;SDS011;7860;52.030;5.572;2023-04-25T01:20:04;17.38;;;5.18;;
15516;SDS011;7860;52.030;5.572;2023-04-25T01:21:06;16.96;;;5.09;;
15516;SDS011;7860;52.030;5.572;2023-04-25T01:22:04;19.29;;;5.34;;
15516;SDS011;7860;52.030;5.572;2023-04-25T01:23:05;17.83;;;5.21;;
15516;SDS011;7860;52.030;5.572;2023-04-25T01:24:06;18.40;;;5.33;;
15516;SDS011;7860;52.030;5.572;2023-04-25T01:25:07;16.49;;;5.23;;
15516;SDS011;7860;52.030;5.572;2023-04-25T01:26:07;18.71;;;5.25;;
15516;SDS011;7860;52.030;5.572;2023-04-25T01:27:08;15.53;;;5.08;;
15516;SDS011;7860;52.030;5.572;2023-04-25T01:28:09;21.50;;;5.76;;
15516;SDS011;7860;52.030;5.572;2023-04-25T01:29:09;15.05;;;4.86;;
15516;SDS011;7860;52.030;5.572;2023-04-25T01:30:10;18.89;;;5.07;;
15516;SDS011;7860;52.030;5.572;2023-04-25T01:31:11;17.83;;;5.52;;
15516;SDS011;7860;52.030;5.572;2023-04-25T01:32:12;19.16;;;4.81;;
15516;SDS011;7860;52.030;5.572;2023-04-25T01:33:12;18.74;;;5.00;;
15516;SDS011;7860;52.030;5.572;2023-04-25T01:34:13;18.93;;;5.24;;
15516;SDS011;7860;52.030;5.572;2023-04-25T01:35:14;19.20;;;5.38;;
15516;SDS011;7860;52.030;5.572;2023-04-25T01:36:14;17.13;;;5.19;;
15516;SDS011;7860;52.030;5.572;2023-04-25T01:37:15;17.14;;;5.14;;
15516;SDS011;7860;52.030;5.572;2023-04-25T01:38:15;16.64;;;4.94;;
15516;SDS011;7860;52.030;5.572;2023-04-25T01:39:15;20.98;;;5.24;;
15516;SDS011;7860;52.030;5.572;2023-04-25T01:40:16;18.89;;;5.17;;
15516;SDS011;7860;52.030;5.572;2023-04-25T01:41:17;16.31;;;5.16;;
15516;SDS011;7860;52.030;5.572;2023-04-25T01:42:18;18.48;;;4.84;;
15516;SDS011;7860;52.030;5.572;2023-04-25T01:43:18;17.38;;;5.03;;
15516;SDS011;7860;52.030;5.572;2023-04-25T01:44:19;15.80;;;4.73;;
15516;SDS011;7860;52.030;5.572;2023-04-25T01:45:20;16.39;;;4.95;;
15516;SDS011;7860;52.030;5.572;2023-04-25T01:46:20;19.55;;;5.05;;
15516;SDS011;7860;52.030;5.572;2023-04-25T01:47:20;15.65;;;4.83;;
15516;SDS011;7860;52.030;5.572;2023-04-25T01:48:21;19.93;;;5.30;;
15516;SDS011;7860;52.030;5.572;2023-04-25T01:49:21;14.26;;;4.69;;
15516;SDS011;7860;52.030;5.572;2023-04-25T01:50:22;14.50;;;5.22;;
15516;SDS011;7860;52.030;5.572;2023-04-25T01:51:23;17.21;;;5.15;;
15516;SDS011;7860;52.030;5.572;2023-04-25T01:52:23;19.07;;;5.55;;
15516;SDS011;7860;52.030;5.572;2023-04-25T01:53:24;18.75;;;5.17;;
15516;SDS011;7860;52.030;5.572;2023-04-25T01:54:25;22.13;;;5.64;;
15516;SDS011;7860;52.030;5.572;2023-04-25T01:55:25;17.59;;;5.22;;
15516;SDS011;7860;52.030;5.572;2023-04-25T01:56:29;17.91;;;5.23;;
15516;SDS011;7860;52.030;5.572;2023-04-25T01:57:27;16.04;;;5.16;;
15516;SDS011;7860;52.030;5.572;2023-04-25T01:58:28;17.89;;;5.18;;
15516;SDS011;7860;52.030;5.572;2023-04-25T01:59:28;17.26;;;5.33;;
15516;SDS011;7860;52.030;5.572;2023-04-25T02:00:28;19.49;;;5.47;;
15516;SDS011;7860;52.030;5.572;2023-04-25T02:01:29;16.53;;;5.61;;
15516;SDS011;7860;52.030;5.572;2023-04-25T02:02:29;20.74;;;5.36;;
15516;SDS011;7860;52.030;5.572;2023-04-25T02:03:31;17.44;;;5.40;;
15516;SDS011;7860;52.030;5.572;2023-04-25T02:04:30;19.90;;;5.43;;
15516;SDS011;7860;52.030;5.572;2023-04-25T02:05:33;19.74;;;5.83;;
15516;SDS011;7860;52.030;5.572;2023-04-25T02:06:31;17.51;;;5.30;;
15516;SDS011;7860;52.030;5.572;2023-04-25T02:07:32;18.16;;;5.12;;
15516;SDS011;7860;52.030;5.572;2023-04-25T02:08:32;16.35;;;5.04;;
15516;SDS011;7860;52.030;5.572;2023-04-25T02:09:33;20.35;;;5.70;;
15516;SDS011;7860;52.030;5.572;2023-04-25T02:10:33;17.56;;;4.82;;
15516;SDS011;7860;52.030;5.572;2023-04-25T02:11:33;16.75;;;5.39;;
15516;SDS011;7860;52.030;5.572;2023-04-25T02:12:35;17.37;;;4.97;;
15516;SDS011;7860;52.030;5.572;2023-04-25T02:13:34;18.22;;;5.09;;
15516;SDS011;7860;52.030;5.572;2023-04-25T02:14:35;16.17;;;4.78;;
15516;SDS011;7860;52.030;5.572;2023-04-25T02:15:36;18.11;;;5.40;;
15516;SDS011;7860;52.030;5.572;2023-04-25T02:16:36;15.57;;;5.14;;
15516;SDS011;7860;52.030;5.572;2023-04-25T02:17:37;18.75;;;5.08;;
15516;SDS011;7860;52.030;5.572;2023-04-25T02:18:38;18.52;;;4.83;;
15516;SDS011;7860;52.030;5.572;2023-04-25T02:19:38;16.18;;;5.34;;
15516;SDS011;7860;52.030;5.572;2023-04-25T02:20:39;16.96;;;5.56;;
15516;SDS011;7860;52.030;5.572;2023-04-25T02:21:39;17.10;;;5.30;;
15516;SDS011;7860;52.030;5.572;2023-04-25T02:22:40;19.37;;;5.57;;
15516;SDS011;7860;52.030;5.572;2023-04-25T02:23:40;16.87;;;4.94;;
15516;SDS011;7860;52.030;5.572;2023-04-25T02:24:40;18.09;;;5.00;;
15516;SDS011;7860;52.030;5.572;2023-04-25T02:25:40;22.10;;;5.64;;
15516;SDS011;7860;52.030;5.572;2023-04-25T02:26:41;19.49;;;5.16;;
15516;SDS011;7860;52.030;5.572;2023-04-25T02:27:41;19.46;;;5.17;;
15516;SDS011;7860;52.030;5.572;2023-04-25T02:28:42;15.17;;;4.86;;
15516;SDS011;7860;52.030;5.572;2023-04-25T02:29:43;18.20;;;4.93;;
15516;SDS011;7860;52.030;5.572;2023-04-25T02:30:43;20.33;;;5.11;;
15516;SDS011;7860;52.030;5.572;2023-04-25T02:31:44;18.79;;;5.03;;
15516;SDS011;7860;52.030;5.572;2023-04-25T02:32:44;18.79;;;5.30;;
15516;SDS011;7860;52.030;5.572;2023-04-25T02:33:45;17.24;;;4.90;;
15516;SDS011;7860;52.030;5.572;2023-04-25T02:34:46;16.69;;;4.92;;
15516;SDS011;7860;52.030;5.572;2023-04-25T02:35:46;14.91;;;5.03;;
15516;SDS011;7860;52.030;5.572;2023-04-25T02:36:47;16.85;;;5.03;;
15516;SDS011;7860;52.030;5.572;2023-04-25T02:37:47;18.30;;;5.01;;
15516;SDS011;7860;52.030;5.572;2023-04-25T02:38:48;17.15;;;5.02;;
15516;SDS011;7860;52.030;5.572;2023-04-25T02:39:49;17.16;;;5.18;;
15516;SDS011;7860;52.030;5.572;2023-04-25T02:40:49;15.77;;;4.51;;
15516;SDS011;7860;52.030;5.572;2023-04-25T02:41:50;18.87;;;5.09;;
15516;SDS011;7860;52.030;5.572;2023-04-25T02:42:50;17.54;;;4.77;;
15516;SDS011;7860;52.030;5.572;2023-04-25T02:43:50;21.22;;;5.06;;
15516;SDS011;7860;52.030;5.572;2023-04-25T02:44:51;16.25;;;4.92;;
15516;SDS011;7860;52.030;5.572;2023-04-25T02:45:51;17.84;;;5.00;;
15516;SDS011;7860;52.030;5.572;2023-04-25T02:46:52;18.80;;;5.52;;
15516;SDS011;7860;52.030;5.572;2023-04-25T02:47:52;21.72;;;4.96;;
15516;SDS011;7860;52.030;5.572;2023-04-25T02:48:53;17.29;;;5.00;;
15516;SDS011;7860;52.030;5.572;2023-04-25T02:49:53;17.39;;;5.07;;
15516;SDS011;7860;52.030;5.572;2023-04-25T02:50:54;16.35;;;4.80;;
15516;SDS011;7860;52.030;5.572;2023-04-25T02:51:54;19.39;;;5.00;;
15516;SDS011;7860;52.030;5.572;2023-04-25T02:52:55;18.51;;;4.87;;
15516;SDS011;7860;52.030;5.572;2023-04-25T02:53:56;19.12;;;5.30;;
15516;SDS011;7860;52.030;5.572;2023-04-25T02:54:56;17.39;;;5.16;;
15516;SDS011;7860;52.030;5.572;2023-04-25T02:55:56;18.70;;;5.33;;
15516;SDS011;7860;52.030;5.572;2023-04-25T02:56:57;18.24;;;5.18;;
15516;SDS011;7860;52.030;5.572;2023-04-25T02:57:58;17.18;;;5.11;;
15516;SDS011;7860;52.030;5.572;2023-04-25T02:58:58;19.42;;;5.05;;
15516;SDS011;7860;52.030;5.572;2023-04-25T02:59:59;17.73;;;5.12;;
15516;SDS011;7860;52.030;5.572;2023-04-25T03:00:59;18.15;;;5.02;;
15516;SDS011;7860;52.030;5.572;2023-04-25T03:02:00;18.62;;;5.46;;
15516;SDS011;7860;52.030;5.572;2023-04-25T03:02:59;18.09;;;5.32;;
15516;SDS011;7860;52.030;5.572;2023-04-25T03:04:00;17.30;;;4.55;;
15516;SDS011;7860;52.030;5.572;2023-04-25T03:05:00;16.40;;;5.16;;
15516;SDS011;7860;52.030;5.572;2023-04-25T03:06:01;20.00;;;5.27;;
15516;SDS011;7860;52.030;5.572;2023-04-25T03:07:01;18.98;;;5.16;;
15516;SDS011;7860;52.030;5.572;2023-04-25T03:08:02;16.95;;;4.64;;
15516;SDS011;7860;52.030;5.572;2023-04-25T03:09:02;15.89;;;4.55;;
15516;SDS011;7860;52.030;5.572;2023-04-25T03:10:03;18.14;;;4.75;;
15516;SDS011;7860;52.030;5.572;2023-04-25T03:11:04;15.03;;;4.51;;
15516;SDS011;7860;52.030;5.572;2023-04-25T03:12:04;17.60;;;4.92;;
15516;SDS011;7860;52.030;5.572;2023-04-25T03:13:05;16.22;;;4.92;;
15516;SDS011;7860;52.030;5.572;2023-04-25T03:14:06;20.60;;;5.07;;
15516;SDS011;7860;52.030;5.572;2023-04-25T03:15:06;17.85;;;4.86;;
15516;SDS011;7860;52.030;5.572;2023-04-25T03:16:07;15.77;;;4.33;;
15516;SDS011;7860;52.030;5.572;2023-04-25T03:17:07;19.77;;;4.90;;
15516;SDS011;7860;52.030;5.572;2023-04-25T03:18:08;16.71;;;5.08;;
15516;SDS011;7860;52.030;5.572;2023-04-25T03:19:09;17.65;;;4.85;;
15516;SDS011;7860;52.030;5.572;2023-04-25T03:20:09;16.75;;;4.90;;
15516;SDS011;7860;52.030;5.572;2023-04-25T03:21:10;17.75;;;4.48;;
15516;SDS011;7860;52.030;5.572;2023-04-25T03:22:10;15.77;;;4.72;;
15516;SDS011;7860;52.030;5.572;2023-04-25T03:23:10;18.09;;;4.66;;
15516;SDS011;7860;52.030;5.572;2023-04-25T03:24:11;19.57;;;4.78;;
15516;SDS011;7860;52.030;5.572;2023-04-25T03:25:11;16.93;;;4.44;;
15516;SDS011;7860;52.030;5.572;2023-04-25T03:26:11;20.39;;;4.82;;
15516;SDS011;7860;52.030;5.572;2023-04-25T03:27:11;16.15;;;4.57;;
15516;SDS011;7860;52.030;5.572;2023-04-25T03:28:13;17.93;;;4.51;;
15516;SDS011;7860;52.030;5.572;2023-04-25T03:29:12;16.20;;;4.71;;
15516;SDS011;7860;52.030;5.572;2023-04-25T03:30:13;16.20;;;4.85;;
15516;SDS011;7860;52.030;5.572;2023-04-25T03:31:13;18.71;;;5.20;;
15516;SDS011;7860;52.030;5.572;2023-04-25T03:32:14;16.61;;;4.53;;
15516;SDS011;7860;52.030;5.572;2023-04-25T03:33:14;19.14;;;4.89;;
15516;SDS011;7860;52.030;5.572;2023-04-25T03:34:15;16.58;;;4.61;;
15516;SDS011;7860;52.030;5.572;2023-04-25T03:35:15;15.86;;;4.68;;
15516;SDS011;7860;52.030;5.572;2023-04-25T03:36:16;16.79;;;4.99;;
15516;SDS011;7860;52.030;5.572;2023-04-25T03:37:16;18.20;;;5.07;;
15516;SDS011;7860;52.030;5.572;2023-04-25T03:38:16;18.88;;;5.27;;
15516;SDS011;7860;52.030;5.572;2023-04-25T03:39:17;18.33;;;4.84;;
15516;SDS011;7860;52.030;5.572;2023-04-25T03:40:17;20.52;;;4.81;;
15516;SDS011;7860;52.030;5.572;2023-04-25T03:41:18;17.18;;;4.72;;
15516;SDS011;7860;52.030;5.572;2023-04-25T03:42:18;20.90;;;4.84;;
15516;SDS011;7860;52.030;5.572;2023-04-25T03:43:19;18.09;;;5.13;;
15516;SDS011;7860;52.030;5.572;2023-04-25T03:44:19;15.58;;;4.55;;
15516;SDS011;7860;52.030;5.572;2023-04-25T03:45:19;18.95;;;4.89;;
15516;SDS011;7860;52.030;5.572;2023-04-25T03:46:19;16.99;;;4.84;;
15516;SDS011;7860;52.030;5.572;2023-04-25T03:47:20;17.73;;;5.11;;
15516;SDS011;7860;52.030;5.572;2023-04-25T03:48:20;16.36;;;4.94;;
15516;SDS011;7860;52.030;5.572;2023-04-25T03:49:21;18.85;;;5.03;;
15516;SDS011;7860;52.030;5.572;2023-04-25T03:50:22;20.07;;;5.46;;
15516;SDS011;7860;52.030;5.572;2023-04-25T03:51:22;16.76;;;4.77;;
15516;SDS011;7860;52.030;5.572;2023-04-25T03:52:23;19.46;;;5.07;;
15516;SDS011;7860;52.030;5.572;2023-04-25T03:53:25;19.61;;;5.34;;
15516;SDS011;7860;52.030;5.572;2023-04-25T03:54:24;16.24;;;4.89;;
15516;SDS011;7860;52.030;5.572;2023-04-25T03:55:25;19.06;;;5.29;;
15516;SDS011;7860;52.030;5.572;2023-04-25T03:56:25;16.66;;;4.97;;
15516;SDS011;7860;52.030;5.572;2023-04-25T03:57:26;18.23;;;5.16;;
15516;SDS011;7860;52.030;5.572;2023-04-25T03:58:26;18.01;;;5.46;;
15516;SDS011;7860;52.030;5.572;2023-04-25T03:59:27;18.93;;;5.45;;
15516;SDS011;7860;52.030;5.572;2023-04-25T04:00:27;15.25;;;4.91;;
15516;SDS011;7860;52.030;5.572;2023-04-25T04:01:28;20.93;;;5.66;;
15516;SDS011;7860;52.030;5.572;2023-04-25T04:02:28;17.36;;;4.79;;
15516;SDS011;7860;52.030;5.572;2023-04-25T04:03:28;16.71;;;5.29;;
15516;SDS011;7860;52.030;5.572;2023-04-25T04:04:29;16.50;;;5.25;;
15516;SDS011;7860;52.030;5.572;2023-04-25T04:05:29;17.88;;;5.26;;
15516;SDS011;7860;52.030;5.572;2023-04-25T04:06:31;18.43;;;5.07;;
15516;SDS011;7860;52.030;5.572;2023-04-25T04:07:30;15.84;;;5.31;;
15516;SDS011;7860;52.030;5.572;2023-04-25T04:08:31;15.88;;;5.08;;
15516;SDS011;7860;52.030;5.572;2023-04-25T04:09:31;18.62;;;5.09;;
15516;SDS011;7860;52.030;5.572;2023-04-25T04:10:32;16.09;;;4.91;;
15516;SDS011;7860;52.030;5.572;2023-04-25T04:11:33;18.12;;;5.24;;
15516;SDS011;7860;52.030;5.572;2023-04-25T04:12:33;18.09;;;5.05;;
15516;SDS011;7860;52.030;5.572;2023-04-25T04:13:34;18.18;;;5.07;;
15516;SDS011;7860;52.030;5.572;2023-04-25T04:14:34;20.61;;;4.93;;
15516;SDS011;7860;52.030;5.572;2023-04-25T04:15:34;17.46;;;4.96;;
15516;SDS011;7860;52.030;5.572;2023-04-25T04:16:35;20.33;;;5.02;;
15516;SDS011;7860;52.030;5.572;2023-04-25T04:17:35;15.76;;;4.73;;
15516;SDS011;7860;52.030;5.572;2023-04-25T04:18:36;17.42;;;5.19;;
15516;SDS011;7860;52.030;5.572;2023-04-25T04:19:36;16.75;;;4.73;;
15516;SDS011;7860;52.030;5.572;2023-04-25T04:20:37;15.39;;;4.61;;
15516;SDS011;7860;52.030;5.572;2023-04-25T04:21:38;15.69;;;4.50;;
15516;SDS011;7860;52.030;5.572;2023-04-25T04:22:38;13.99;;;4.24;;
15516;SDS011;7860;52.030;5.572;2023-04-25T04:23:38;15.53;;;4.83;;
15516;SDS011;7860;52.030;5.572;2023-04-25T04:24:38;15.41;;;4.71;;
15516;SDS011;7860;52.030;5.572;2023-04-25T04:25:39;19.27;;;5.09;;
15516;SDS011;7860;52.030;5.572;2023-04-25T04:26:39;17.07;;;5.23;;
15516;SDS011;7860;52.030;5.572;2023-04-25T04:27:40;19.58;;;5.24;;
15516;SDS011;7860;52.030;5.572;2023-04-25T04:28:40;15.81;;;4.67;;
15516;SDS011;7860;52.030;5.572;2023-04-25T04:29:41;15.19;;;4.90;;
15516;SDS011;7860;52.030;5.572;2023-04-25T04:30:42;15.67;;;5.06;;
15516;SDS011;7860;52.030;5.572;2023-04-25T04:31:42;15.23;;;4.80;;
15516;SDS011;7860;52.030;5.572;2023-04-25T04:32:43;15.28;;;4.71;;
15516;SDS011;7860;52.030;5.572;2023-04-25T04:33:43;16.04;;;4.75;;
15516;SDS011;7860;52.030;5.572;2023-04-25T04:34:44;16.41;;;4.65;;
15516;SDS011;7860;52.030;5.572;2023-04-25T04:35:44;16.40;;;4.74;;
15516;SDS011;7860;52.030;5.572;2023-04-25T04:36:45;16.56;;;4.65;;
15516;SDS011;7860;52.030;5.572;2023-04-25T04:37:45;18.91;;;5.07;;
15516;SDS011;7860;52.030;5.572;2023-04-25T04:38:46;16.27;;;4.72;;
15516;SDS011;7860;52.030;5.572;2023-04-25T04:39:46;17.70;;;4.69;;
15516;SDS011;7860;52.030;5.572;2023-04-25T04:40:47;19.77;;;4.78;;
15516;SDS011;7860;52.030;5.572;2023-04-25T04:41:48;19.73;;;4.79;;
15516;SDS011;7860;52.030;5.572;2023-04-25T04:42:48;14.58;;;4.50;;
15516;SDS011;7860;52.030;5.572;2023-04-25T04:43:48;15.27;;;4.80;;
15516;SDS011;7860;52.030;5.572;2023-04-25T04:44:49;17.65;;;4.65;;
15516;SDS011;7860;52.030;5.572;2023-04-25T04:45:49;15.32;;;4.23;;
15516;SDS011;7860;52.030;5.572;2023-04-25T04:46:50;15.25;;;4.47;;
15516;SDS011;7860;52.030;5.572;2023-04-25T04:47:50;16.49;;;4.48;;
15516;SDS011;7860;52.030;5.572;2023-04-25T04:48:51;14.10;;;4.21;;
15516;SDS011;7860;52.030;5.572;2023-04-25T04:49:51;16.27;;;4.34;;
15516;SDS011;7860;52.030;5.572;2023-04-25T04:50:51;13.43;;;4.15;;
15516;SDS011;7860;52.030;5.572;2023-04-25T04:51:52;15.88;;;4.64;;
15516;SDS011;7860;52.030;5.572;2023-04-25T04:52:52;14.97;;;4.22;;
15516;SDS011;7860;52.030;5.572;2023-04-25T04:53:53;13.83;;;4.08;;
15516;SDS011;7860;52.030;5.572;2023-04-25T04:54:53;13.02;;;4.20;;
15516;SDS011;7860;52.030;5.572;2023-04-25T04:55:54;15.72;;;4.45;;
15516;SDS011;7860;52.030;5.572;2023-04-25T04:56:55;13.40;;;4.30;;
15516;SDS011;7860;52.030;5.572;2023-04-25T04:57:56;16.20;;;4.35;;
15516;SDS011;7860;52.030;5.572;2023-04-25T04:58:56;13.67;;;4.17;;
15516;SDS011;7860;52.030;5.572;2023-04-25T04:59:57;18.49;;;4.44;;
15516;SDS011;7860;52.030;5.572;2023-04-25T05:00:58;13.31;;;4.02;;
15516;SDS011;7860;52.030;5.572;2023-04-25T05:01:58;17.02;;;4.42;;
15516;SDS011;7860;52.030;5.572;2023-04-25T05:02:59;14.08;;;3.97;;
15516;SDS011;7860;52.030;5.572;2023-04-25T05:03:59;13.87;;;4.23;;
15516;SDS011;7860;52.030;5.572;2023-04-25T05:04:59;13.93;;;4.06;;
15516;SDS011;7860;52.030;5.572;2023-04-25T05:05:59;13.53;;;4.21;;
15516;SDS011;7860;52.030;5.572;2023-04-25T05:07:00;13.12;;;4.07;;
15516;SDS011;7860;52.030;5.572;2023-04-25T05:08:00;13.47;;;4.33;;
15516;SDS011;7860;52.030;5.572;2023-04-25T05:09:01;14.31;;;3.67;;
15516;SDS011;7860;52.030;5.572;2023-04-25T05:10:02;14.72;;;4.15;;
15516;SDS011;7860;52.030;5.572;2023-04-25T05:11:02;16.42;;;4.42;;
15516;SDS011;7860;52.030;5.572;2023-04-25T05:12:02;16.14;;;4.06;;
15516;SDS011;7860;52.030;5.572;2023-04-25T05:13:03;15.04;;;4.38;;
15516;SDS011;7860;52.030;5.572;2023-04-25T05:14:03;15.56;;;3.93;;
15516;SDS011;7860;52.030;5.572;2023-04-25T05:15:04;14.89;;;4.36;;
15516;SDS011;7860;52.030;5.572;2023-04-25T05:16:04;17.31;;;4.20;;
15516;SDS011;7860;52.030;5.572;2023-04-25T05:17:05;12.64;;;4.07;;
15516;SDS011;7860;52.030;5.572;2023-04-25T05:18:06;13.89;;;4.28;;
15516;SDS011;7860;52.030;5.572;2023-04-25T05:19:06;12.32;;;3.93;;
15516;SDS011;7860;52.030;5.572;2023-04-25T05:20:07;13.11;;;3.73;;
15516;SDS011;7860;52.030;5.572;2023-04-25T05:21:07;12.32;;;3.62;;
15516;SDS011;7860;52.030;5.572;2023-04-25T05:22:08;12.87;;;3.69;;
15516;SDS011;7860;52.030;5.572;2023-04-25T05:23:08;12.65;;;3.64;;
15516;SDS011;7860;52.030;5.572;2023-04-25T05:24:09;12.12;;;3.76;;
15516;SDS011;7860;52.030;5.572;2023-04-25T05:25:09;12.87;;;4.00;;
15516;SDS011;7860;52.030;5.572;2023-04-25T05:26:10;13.50;;;3.69;;
15516;SDS011;7860;52.030;5.572;2023-04-25T05:27:10;13.30;;;4.01;;
15516;SDS011;7860;52.030;5.572;2023-04-25T05:28:12;12.57;;;3.42;;
15516;SDS011;7860;52.030;5.572;2023-04-25T05:29:11;11.94;;;4.07;;
15516;SDS011;7860;52.030;5.572;2023-04-25T05:30:12;12.38;;;3.42;;
15516;SDS011;7860;52.030;5.572;2023-04-25T05:31:13;12.54;;;3.36;;
15516;SDS011;7860;52.030;5.572;2023-04-25T05:32:13;11.30;;;3.35;;
15516;SDS011;7860;52.030;5.572;2023-04-25T05:33:14;14.04;;;3.58;;
15516;SDS011;7860;52.030;5.572;2023-04-25T05:34:14;11.44;;;3.46;;
15516;SDS011;7860;52.030;5.572;2023-04-25T05:35:15;12.36;;;3.41;;
15516;SDS011;7860;52.030;5.572;2023-04-25T05:36:15;11.00;;;3.29;;
15516;SDS011;7860;52.030;5.572;2023-04-25T05:37:16;12.13;;;3.69;;
15516;SDS011;7860;52.030;5.572;2023-04-25T05:38:16;11.51;;;3.20;;
15516;SDS011;7860;52.030;5.572;2023-04-25T05:39:17;15.86;;;3.98;;
15516;SDS011;7860;52.030;5.572;2023-04-25T05:40:17;14.45;;;3.69;;
15516;SDS011;7860;52.030;5.572;2023-04-25T05:41:18;13.03;;;3.47;;
15516;SDS011;7860;52.030;5.572;2023-04-25T05:42:18;12.51;;;3.53;;
15516;SDS011;7860;52.030;5.572;2023-04-25T05:43:19;11.90;;;3.38;;
15516;SDS011;7860;52.030;5.572;2023-04-25T05:44:19;14.43;;;3.49;;
15516;SDS011;7860;52.030;5.572;2023-04-25T05:45:20;12.03;;;3.33;;
15516;SDS011;7860;52.030;5.572;2023-04-25T05:46:20;10.90;;;3.05;;
15516;SDS011;7860;52.030;5.572;2023-04-25T05:47:21;11.78;;;3.22;;
15516;SDS011;7860;52.030;5.572;2023-04-25T05:48:21;12.32;;;3.72;;
15516;SDS011;7860;52.030;5.572;2023-04-25T05:49:21;12.64;;;3.30;;
15516;SDS011;7860;52.030;5.572;2023-04-25T05:50:22;12.47;;;3.29;;
15516;SDS011;7860;52.030;5.572;2023-04-25T05:51:22;11.45;;;2.97;;
15516;SDS011;7860;52.030;5.572;2023-04-25T05:52:22;12.10;;;3.24;;
15516;SDS011;7860;52.030;5.572;2023-04-25T05:53:22;11.06;;;3.20;;
15516;SDS011;7860;52.030;5.572;2023-04-25T05:54:23;13.88;;;3.41;;
15516;SDS011;7860;52.030;5.572;2023-04-25T05:55:23;15.07;;;3.60;;
15516;SDS011;7860;52.030;5.572;2023-04-25T05:56:24;10.02;;;3.12;;
15516;SDS011;7860;52.030;5.572;2023-04-25T05:57:26;12.21;;;3.45;;
15516;SDS011;7860;52.030;5.572;2023-04-25T05:58:25;15.38;;;3.35;;
15516;SDS011;7860;52.030;5.572;2023-04-25T05:59:26;14.77;;;3.57;;
15516;SDS011;7860;52.030;5.572;2023-04-25T06:00:26;11.79;;;3.10;;
15516;SDS011;7860;52.030;5.572;2023-04-25T06:01:26;12.85;;;3.66;;
15516;SDS011;7860;52.030;5.572;2023-04-25T06:02:27;11.92;;;3.50;;
15516;SDS011;7860;52.030;5.572;2023-04-25T06:03:27;10.37;;;3.27;;
15516;SDS011;7860;52.030;5.572;2023-04-25T06:04:28;9.23;;;3.24;;
15516;SDS011;7860;52.030;5.572;2023-04-25T06:05:28;10.43;;;2.87;;
15516;SDS011;7860;52.030;5.572;2023-04-25T06:06:28;11.90;;;3.50;;